sensor_id;sensor_type;location;lat;lon;timestamp;temperature;humidity
14401;DHT22;7285;50.894;5.462;2022-07-17T00:01:39;13.00;1.00
14401;DHT22;7285;50.894;5.462;2022-07-17T00:04:06;12.90;1.00
14401;DHT22;7285;50.894;5.462;2022-07-17T00:06:34;12.90;1.00
14401;DHT22;7285;50.894;5.462;2022-07-17T00:09:25;12.90;1.00
14401;DHT22;7285;50.894;5.462;2022-07-17T00:11:52;12.80;1.00
14401;DHT22;7285;50.894;5.462;2022-07-17T00:14:19;12.70;1.00
14401;DHT22;7285;50.894;5.462;2022-07-17T00:16:46;12.70;1.00
14401;DHT22;7285;50.894;5.462;2022-07-17T00:19:13;12.70;1.00
14401;DHT22;7285;50.894;5.462;2022-07-17T00:21:40;12.70;1.00
14401;DHT22;7285;50.894;5.462;2022-07-17T00:24:08;12.60;1.00
14401;DHT22;7285;50.894;5.462;2022-07-17T00:26:37;12.60;1.00
14401;DHT22;7285;50.894;5.462;2022-07-17T00:29:04;12.60;1.00
14401;DHT22;7285;50.894;5.462;2022-07-17T00:31:31;12.60;1.00
14401;DHT22;7285;50.894;5.462;2022-07-17T00:33:58;12.50;1.00
14401;DHT22;7285;50.894;5.462;2022-07-17T00:36:25;12.50;1.00
14401;DHT22;7285;50.894;5.462;2022-07-17T00:38:52;12.50;1.00
14401;DHT22;7285;50.894;5.462;2022-07-17T00:41:19;12.50;1.00
14401;DHT22;7285;50.894;5.462;2022-07-17T00:43:48;12.40;1.00
14401;DHT22;7285;50.894;5.462;2022-07-17T00:46:15;12.40;1.00
14401;DHT22;7285;50.894;5.462;2022-07-17T00:48:42;12.30;1.00
14401;DHT22;7285;50.894;5.462;2022-07-17T00:51:09;12.30;1.00
14401;DHT22;7285;50.894;5.462;2022-07-17T00:53:37;12.20;1.00
14401;DHT22;7285;50.894;5.462;2022-07-17T00:56:05;12.10;1.00
14401;DHT22;7285;50.894;5.462;2022-07-17T00:58:34;12.10;1.00
14401;DHT22;7285;50.894;5.462;2022-07-17T01:01:05;12.10;1.00
14401;DHT22;7285;50.894;5.462;2022-07-17T01:03:33;12.10;1.00
14401;DHT22;7285;50.894;5.462;2022-07-17T01:06:00;12.10;1.00
14401;DHT22;7285;50.894;5.462;2022-07-17T01:08:28;12.10;1.00
14401;DHT22;7285;50.894;5.462;2022-07-17T01:10:57;12.10;1.00
14401;DHT22;7285;50.894;5.462;2022-07-17T01:13:25;12.10;1.00
14401;DHT22;7285;50.894;5.462;2022-07-17T01:15:52;12.00;1.00
14401;DHT22;7285;50.894;5.462;2022-07-17T01:18:22;12.00;1.00
14401;DHT22;7285;50.894;5.462;2022-07-17T01:20:50;12.00;1.00
14401;DHT22;7285;50.894;5.462;2022-07-17T01:23:19;11.90;1.00
14401;DHT22;7285;50.894;5.462;2022-07-17T01:25:46;11.90;1.00
14401;DHT22;7285;50.894;5.462;2022-07-17T01:28:14;11.80;1.00
14401;DHT22;7285;50.894;5.462;2022-07-17T01:30:49;11.70;1.00
14401;DHT22;7285;50.894;5.462;2022-07-17T01:33:16;11.70;1.00
14401;DHT22;7285;50.894;5.462;2022-07-17T01:35:43;11.60;1.00
14401;DHT22;7285;50.894;5.462;2022-07-17T01:38:11;11.60;1.00
14401;DHT22;7285;50.894;5.462;2022-07-17T01:40:40;11.60;1.00
14401;DHT22;7285;50.894;5.462;2022-07-17T01:43:07;11.60;1.00
14401;DHT22;7285;50.894;5.462;2022-07-17T01:45:35;11.60;1.00
14401;DHT22;7285;50.894;5.462;2022-07-17T01:48:02;11.50;1.00
14401;DHT22;7285;50.894;5.462;2022-07-17T01:50:29;11.50;1.00
14401;DHT22;7285;50.894;5.462;2022-07-17T01:52:56;11.50;1.00
14401;DHT22;7285;50.894;5.462;2022-07-17T01:55:23;11.60;1.00
14401;DHT22;7285;50.894;5.462;2022-07-17T01:57:52;11.50;1.00
14401;DHT22;7285;50.894;5.462;2022-07-17T02:00:19;11.40;1.00
14401;DHT22;7285;50.894;5.462;2022-07-17T02:02:48;11.40;1.00
14401;DHT22;7285;50.894;5.462;2022-07-17T02:05:15;11.40;1.00
14401;DHT22;7285;50.894;5.462;2022-07-17T02:07:42;11.30;15.50
14401;DHT22;7285;50.894;5.462;2022-07-17T02:10:10;11.40;1.00
14401;DHT22;7285;50.894;5.462;2022-07-17T02:12:39;11.30;3.70
14401;DHT22;7285;50.894;5.462;2022-07-17T02:15:08;11.30;5.90
14401;DHT22;7285;50.894;5.462;2022-07-17T02:17:35;11.40;24.80
14401;DHT22;7285;50.894;5.462;2022-07-17T02:20:03;11.40;81.70
14401;DHT22;7285;50.894;5.462;2022-07-17T02:22:30;11.30;1.00
14401;DHT22;7285;50.894;5.462;2022-07-17T02:24:58;11.20;1.00
14401;DHT22;7285;50.894;5.462;2022-07-17T02:27:25;11.30;1.00
14401;DHT22;7285;50.894;5.462;2022-07-17T02:29:52;11.10;17.60
14401;DHT22;7285;50.894;5.462;2022-07-17T02:32:21;11.10;83.80
14401;DHT22;7285;50.894;5.462;2022-07-17T02:34:48;11.10;99.90
14401;DHT22;7285;50.894;5.462;2022-07-17T02:37:15;11.00;99.90
14401;DHT22;7285;50.894;5.462;2022-07-17T02:39:42;11.00;99.90
14401;DHT22;7285;50.894;5.462;2022-07-17T02:42:19;11.00;99.90
14401;DHT22;7285;50.894;5.462;2022-07-17T02:44:46;11.00;99.90
14401;DHT22;7285;50.894;5.462;2022-07-17T02:47:21;10.90;58.30
14401;DHT22;7285;50.894;5.462;2022-07-17T02:49:48;10.90;89.10
14401;DHT22;7285;50.894;5.462;2022-07-17T02:52:15;10.90;86.70
14401;DHT22;7285;50.894;5.462;2022-07-17T02:54:42;10.80;99.90
14401;DHT22;7285;50.894;5.462;2022-07-17T02:57:10;10.80;99.90
14401;DHT22;7285;50.894;5.462;2022-07-17T02:59:37;10.80;99.90
14401;DHT22;7285;50.894;5.462;2022-07-17T03:02:04;10.80;99.90
14401;DHT22;7285;50.894;5.462;2022-07-17T03:04:33;10.80;99.90
14401;DHT22;7285;50.894;5.462;2022-07-17T03:07:00;10.80;99.90
14401;DHT22;7285;50.894;5.462;2022-07-17T03:09:27;10.80;99.90
14401;DHT22;7285;50.894;5.462;2022-07-17T03:11:54;10.60;99.90
14401;DHT22;7285;50.894;5.462;2022-07-17T03:14:21;10.60;99.90
14401;DHT22;7285;50.894;5.462;2022-07-17T03:16:48;10.60;99.90
14401;DHT22;7285;50.894;5.462;2022-07-17T03:19:15;10.60;99.90
14401;DHT22;7285;50.894;5.462;2022-07-17T03:21:43;10.60;99.90
14401;DHT22;7285;50.894;5.462;2022-07-17T03:24:10;10.60;99.90
14401;DHT22;7285;50.894;5.462;2022-07-17T03:26:37;10.70;99.90
14401;DHT22;7285;50.894;5.462;2022-07-17T03:29:04;10.60;99.90
14401;DHT22;7285;50.894;5.462;2022-07-17T03:31:31;10.50;99.90
14401;DHT22;7285;50.894;5.462;2022-07-17T03:33:58;10.50;99.90
14401;DHT22;7285;50.894;5.462;2022-07-17T03:36:25;10.40;99.90
14401;DHT22;7285;50.894;5.462;2022-07-17T03:38:53;10.40;99.90
14401;DHT22;7285;50.894;5.462;2022-07-17T03:41:20;10.30;99.90
14401;DHT22;7285;50.894;5.462;2022-07-17T03:43:47;10.30;99.90
14401;DHT22;7285;50.894;5.462;2022-07-17T03:46:14;10.20;99.90
14401;DHT22;7285;50.894;5.462;2022-07-17T03:48:41;10.20;99.90
14401;DHT22;7285;50.894;5.462;2022-07-17T03:51:08;10.10;99.90
14401;DHT22;7285;50.894;5.462;2022-07-17T03:53:35;10.20;99.90
14401;DHT22;7285;50.894;5.462;2022-07-17T03:56:04;10.10;99.90
14401;DHT22;7285;50.894;5.462;2022-07-17T03:58:34;10.00;99.90
14401;DHT22;7285;50.894;5.462;2022-07-17T04:01:02;10.00;99.90
14401;DHT22;7285;50.894;5.462;2022-07-17T04:03:29;10.00;99.90
14401;DHT22;7285;50.894;5.462;2022-07-17T04:05:56;10.10;1.00
14401;DHT22;7285;50.894;5.462;2022-07-17T04:08:23;10.10;1.00
14401;DHT22;7285;50.894;5.462;2022-07-17T04:10:50;10.10;1.00
14401;DHT22;7285;50.894;5.462;2022-07-17T04:13:18;10.10;1.00
14401;DHT22;7285;50.894;5.462;2022-07-17T04:15:45;10.00;1.00
14401;DHT22;7285;50.894;5.462;2022-07-17T04:18:23;10.00;1.00
14401;DHT22;7285;50.894;5.462;2022-07-17T04:20:52;10.00;1.00
14401;DHT22;7285;50.894;5.462;2022-07-17T04:23:19;10.00;1.00
14401;DHT22;7285;50.894;5.462;2022-07-17T04:25:46;10.00;1.00
14401;DHT22;7285;50.894;5.462;2022-07-17T04:28:13;10.10;1.00
14401;DHT22;7285;50.894;5.462;2022-07-17T04:30:42;10.00;1.00
14401;DHT22;7285;50.894;5.462;2022-07-17T04:33:09;10.00;1.00
14401;DHT22;7285;50.894;5.462;2022-07-17T04:35:36;10.00;1.00
14401;DHT22;7285;50.894;5.462;2022-07-17T04:38:05;10.00;1.00
14401;DHT22;7285;50.894;5.462;2022-07-17T04:40:35;10.00;1.00
14401;DHT22;7285;50.894;5.462;2022-07-17T04:43:03;10.10;1.00
14401;DHT22;7285;50.894;5.462;2022-07-17T04:45:30;10.20;1.00
14401;DHT22;7285;50.894;5.462;2022-07-17T04:47:59;10.30;1.00
14401;DHT22;7285;50.894;5.462;2022-07-17T04:50:26;10.40;1.00
14401;DHT22;7285;50.894;5.462;2022-07-17T04:52:53;10.40;1.00
14401;DHT22;7285;50.894;5.462;2022-07-17T04:55:20;10.50;1.00
14401;DHT22;7285;50.894;5.462;2022-07-17T04:57:47;10.60;1.00
14401;DHT22;7285;50.894;5.462;2022-07-17T05:00:14;10.70;1.00
14401;DHT22;7285;50.894;5.462;2022-07-17T05:02:42;10.80;1.00
14401;DHT22;7285;50.894;5.462;2022-07-17T05:05:10;10.90;1.00
14401;DHT22;7285;50.894;5.462;2022-07-17T05:07:37;10.90;1.00
14401;DHT22;7285;50.894;5.462;2022-07-17T05:10:06;11.00;1.00
14401;DHT22;7285;50.894;5.462;2022-07-17T05:12:34;11.20;1.00
14401;DHT22;7285;50.894;5.462;2022-07-17T05:15:01;11.30;1.00
14401;DHT22;7285;50.894;5.462;2022-07-17T05:17:28;11.40;1.00
14401;DHT22;7285;50.894;5.462;2022-07-17T05:19:55;11.50;1.00
14401;DHT22;7285;50.894;5.462;2022-07-17T05:22:23;11.60;1.00
14401;DHT22;7285;50.894;5.462;2022-07-17T05:24:50;11.70;1.00
14401;DHT22;7285;50.894;5.462;2022-07-17T05:27:17;11.80;1.00
14401;DHT22;7285;50.894;5.462;2022-07-17T05:29:44;12.00;1.00
14401;DHT22;7285;50.894;5.462;2022-07-17T05:32:11;12.00;1.00
14401;DHT22;7285;50.894;5.462;2022-07-17T05:34:38;12.10;1.00
14401;DHT22;7285;50.894;5.462;2022-07-17T05:37:05;12.20;99.90
14401;DHT22;7285;50.894;5.462;2022-07-17T05:39:33;12.30;99.90
14401;DHT22;7285;50.894;5.462;2022-07-17T05:42:00;12.50;99.90
14401;DHT22;7285;50.894;5.462;2022-07-17T05:44:27;12.60;99.90
14401;DHT22;7285;50.894;5.462;2022-07-17T05:46:54;12.70;99.90
14401;DHT22;7285;50.894;5.462;2022-07-17T05:49:21;12.90;99.90
14401;DHT22;7285;50.894;5.462;2022-07-17T05:51:48;13.00;99.90
14401;DHT22;7285;50.894;5.462;2022-07-17T05:54:15;13.10;99.90
14401;DHT22;7285;50.894;5.462;2022-07-17T05:56:43;13.20;54.90
14401;DHT22;7285;50.894;5.462;2022-07-17T05:59:10;13.40;48.50
14401;DHT22;7285;50.894;5.462;2022-07-17T06:01:37;13.50;25.10
14401;DHT22;7285;50.894;5.462;2022-07-17T06:04:04;13.70;35.30
14401;DHT22;7285;50.894;5.462;2022-07-17T06:06:31;13.80;1.00
14401;DHT22;7285;50.894;5.462;2022-07-17T06:08:58;13.90;1.00
14401;DHT22;7285;50.894;5.462;2022-07-17T06:11:26;14.10;1.00
14401;DHT22;7285;50.894;5.462;2022-07-17T06:13:54;14.20;1.00
14401;DHT22;7285;50.894;5.462;2022-07-17T06:16:21;14.40;1.00
14401;DHT22;7285;50.894;5.462;2022-07-17T06:18:48;14.60;1.00
14401;DHT22;7285;50.894;5.462;2022-07-17T06:21:15;14.70;1.00
14401;DHT22;7285;50.894;5.462;2022-07-17T06:23:42;14.80;1.00
14401;DHT22;7285;50.894;5.462;2022-07-17T06:26:09;15.00;1.00
14401;DHT22;7285;50.894;5.462;2022-07-17T06:28:36;15.20;1.00
14401;DHT22;7285;50.894;5.462;2022-07-17T06:31:04;15.30;1.00
14401;DHT22;7285;50.894;5.462;2022-07-17T06:33:31;15.50;1.00
14401;DHT22;7285;50.894;5.462;2022-07-17T06:35:58;15.60;1.00
14401;DHT22;7285;50.894;5.462;2022-07-17T06:38:25;15.70;1.00
14401;DHT22;7285;50.894;5.462;2022-07-17T06:40:52;15.90;1.00
14401;DHT22;7285;50.894;5.462;2022-07-17T06:43:19;16.00;1.00
14401;DHT22;7285;50.894;5.462;2022-07-17T06:45:47;16.10;1.00
14401;DHT22;7285;50.894;5.462;2022-07-17T06:48:19;16.30;99.90
14401;DHT22;7285;50.894;5.462;2022-07-17T06:50:46;16.40;99.90
14401;DHT22;7285;50.894;5.462;2022-07-17T06:53:13;16.50;99.90
14401;DHT22;7285;50.894;5.462;2022-07-17T06:55:41;16.50;99.90
14401;DHT22;7285;50.894;5.462;2022-07-17T06:58:08;16.70;99.90
14401;DHT22;7285;50.894;5.462;2022-07-17T07:00:35;16.80;99.90
14401;DHT22;7285;50.894;5.462;2022-07-17T07:03:02;16.90;99.90
14401;DHT22;7285;50.894;5.462;2022-07-17T07:05:31;17.10;99.90
14401;DHT22;7285;50.894;5.462;2022-07-17T07:07:58;17.20;99.90
14401;DHT22;7285;50.894;5.462;2022-07-17T07:10:25;17.30;99.90
14401;DHT22;7285;50.894;5.462;2022-07-17T07:12:52;17.40;99.90
14401;DHT22;7285;50.894;5.462;2022-07-17T07:15:19;17.60;99.90
14401;DHT22;7285;50.894;5.462;2022-07-17T07:17:46;17.70;99.90
14401;DHT22;7285;50.894;5.462;2022-07-17T07:20:13;17.80;99.90
14401;DHT22;7285;50.894;5.462;2022-07-17T07:22:42;17.90;99.90
14401;DHT22;7285;50.894;5.462;2022-07-17T07:25:09;17.90;99.90
14401;DHT22;7285;50.894;5.462;2022-07-17T07:27:36;18.20;99.90
14401;DHT22;7285;50.894;5.462;2022-07-17T07:30:04;18.30;99.90
14401;DHT22;7285;50.894;5.462;2022-07-17T07:32:35;18.30;99.90
14401;DHT22;7285;50.894;5.462;2022-07-17T07:35:02;18.30;99.90
14401;DHT22;7285;50.894;5.462;2022-07-17T07:37:29;18.50;99.90
14401;DHT22;7285;50.894;5.462;2022-07-17T07:39:58;18.40;99.90
14401;DHT22;7285;50.894;5.462;2022-07-17T07:42:25;18.50;99.90
14401;DHT22;7285;50.894;5.462;2022-07-17T07:44:52;18.70;99.90
14401;DHT22;7285;50.894;5.462;2022-07-17T07:47:20;18.80;99.90
14401;DHT22;7285;50.894;5.462;2022-07-17T07:49:47;18.90;99.90
14401;DHT22;7285;50.894;5.462;2022-07-17T07:52:14;19.10;99.90
14401;DHT22;7285;50.894;5.462;2022-07-17T07:54:41;19.50;99.90
14401;DHT22;7285;50.894;5.462;2022-07-17T07:57:09;19.50;99.90
14401;DHT22;7285;50.894;5.462;2022-07-17T07:59:36;19.60;99.90
14401;DHT22;7285;50.894;5.462;2022-07-17T08:02:04;19.60;99.90
14401;DHT22;7285;50.894;5.462;2022-07-17T08:04:31;19.70;99.90
14401;DHT22;7285;50.894;5.462;2022-07-17T08:06:58;19.80;99.90
14401;DHT22;7285;50.894;5.462;2022-07-17T08:09:25;19.80;99.90
14401;DHT22;7285;50.894;5.462;2022-07-17T08:11:52;20.10;99.90
14401;DHT22;7285;50.894;5.462;2022-07-17T08:14:20;20.20;99.90
14401;DHT22;7285;50.894;5.462;2022-07-17T08:16:47;20.30;99.90
14401;DHT22;7285;50.894;5.462;2022-07-17T08:19:14;20.40;99.90
14401;DHT22;7285;50.894;5.462;2022-07-17T08:21:41;20.30;99.90
14401;DHT22;7285;50.894;5.462;2022-07-17T08:24:08;20.50;99.90
14401;DHT22;7285;50.894;5.462;2022-07-17T08:26:35;20.60;99.90
14401;DHT22;7285;50.894;5.462;2022-07-17T08:29:02;20.70;99.90
14401;DHT22;7285;50.894;5.462;2022-07-17T08:31:31;20.80;99.90
14401;DHT22;7285;50.894;5.462;2022-07-17T08:34:01;20.80;99.90
14401;DHT22;7285;50.894;5.462;2022-07-17T08:36:31;20.80;99.90
14401;DHT22;7285;50.894;5.462;2022-07-17T08:39:03;21.20;99.90
14401;DHT22;7285;50.894;5.462;2022-07-17T08:41:30;21.20;99.90
14401;DHT22;7285;50.894;5.462;2022-07-17T08:44:02;21.40;99.90
14401;DHT22;7285;50.894;5.462;2022-07-17T08:46:33;21.60;99.90
14401;DHT22;7285;50.894;5.462;2022-07-17T08:49:02;21.70;99.90
14401;DHT22;7285;50.894;5.462;2022-07-17T08:51:30;22.00;99.90
14401;DHT22;7285;50.894;5.462;2022-07-17T08:53:58;22.10;92.30
14401;DHT22;7285;50.894;5.462;2022-07-17T08:56:26;22.30;97.00
14401;DHT22;7285;50.894;5.462;2022-07-17T08:58:53;22.60;94.70
14401;DHT22;7285;50.894;5.462;2022-07-17T09:01:21;22.50;65.20
14401;DHT22;7285;50.894;5.462;2022-07-17T09:03:59;22.20;61.50
14401;DHT22;7285;50.894;5.462;2022-07-17T09:06:31;22.50;60.00
14401;DHT22;7285;50.894;5.462;2022-07-17T09:09:03;22.60;70.90
14401;DHT22;7285;50.894;5.462;2022-07-17T09:11:41;22.80;63.60
14401;DHT22;7285;50.894;5.462;2022-07-17T09:14:08;23.10;57.10
14401;DHT22;7285;50.894;5.462;2022-07-17T09:16:35;23.20;37.80
14401;DHT22;7285;50.894;5.462;2022-07-17T09:19:04;23.30;40.80
14401;DHT22;7285;50.894;5.462;2022-07-17T09:21:31;23.20;40.70
14401;DHT22;7285;50.894;5.462;2022-07-17T09:23:59;23.10;24.10
14401;DHT22;7285;50.894;5.462;2022-07-17T09:26:27;22.90;22.90
14401;DHT22;7285;50.894;5.462;2022-07-17T09:28:55;23.40;23.70
14401;DHT22;7285;50.894;5.462;2022-07-17T09:31:26;23.70;24.40
14401;DHT22;7285;50.894;5.462;2022-07-17T09:33:54;23.80;14.20
14401;DHT22;7285;50.894;5.462;2022-07-17T09:36:24;23.50;27.20
14401;DHT22;7285;50.894;5.462;2022-07-17T09:38:54;23.50;10.10
14401;DHT22;7285;50.894;5.462;2022-07-17T09:41:23;23.90;15.50
14401;DHT22;7285;50.894;5.462;2022-07-17T09:43:51;24.00;10.80
14401;DHT22;7285;50.894;5.462;2022-07-17T09:46:22;24.00;9.00
14401;DHT22;7285;50.894;5.462;2022-07-17T09:48:51;23.80;5.80
14401;DHT22;7285;50.894;5.462;2022-07-17T09:51:21;23.80;5.00
14401;DHT22;7285;50.894;5.462;2022-07-17T09:53:51;24.00;3.20
14401;DHT22;7285;50.894;5.462;2022-07-17T09:56:21;23.40;1.00
14401;DHT22;7285;50.894;5.462;2022-07-17T09:58:49;23.40;1.00
14401;DHT22;7285;50.894;5.462;2022-07-17T10:01:17;23.90;1.00
14401;DHT22;7285;50.894;5.462;2022-07-17T10:03:45;24.10;1.00
14401;DHT22;7285;50.894;5.462;2022-07-17T10:06:14;24.20;1.00
14401;DHT22;7285;50.894;5.462;2022-07-17T10:08:42;24.30;1.00
14401;DHT22;7285;50.894;5.462;2022-07-17T10:11:11;24.70;1.00
14401;DHT22;7285;50.894;5.462;2022-07-17T10:13:40;24.90;1.00
14401;DHT22;7285;50.894;5.462;2022-07-17T10:16:07;25.00;1.00
14401;DHT22;7285;50.894;5.462;2022-07-17T10:18:39;24.40;1.00
14401;DHT22;7285;50.894;5.462;2022-07-17T10:21:15;24.90;1.00
14401;DHT22;7285;50.894;5.462;2022-07-17T10:23:46;24.90;1.00
14401;DHT22;7285;50.894;5.462;2022-07-17T10:26:15;24.80;1.00
14401;DHT22;7285;50.894;5.462;2022-07-17T10:28:48;25.00;1.00
14401;DHT22;7285;50.894;5.462;2022-07-17T10:31:26;25.30;8.80
14401;DHT22;7285;50.894;5.462;2022-07-17T10:37:23;25.50;1.00
14401;DHT22;7285;50.894;5.462;2022-07-17T10:40:02;25.70;1.00
14401;DHT22;7285;50.894;5.462;2022-07-17T10:42:52;25.70;1.00
14401;DHT22;7285;50.894;5.462;2022-07-17T10:45:20;25.80;1.00
14401;DHT22;7285;50.894;5.462;2022-07-17T10:47:56;25.80;1.00
14401;DHT22;7285;50.894;5.462;2022-07-17T10:50:28;25.50;1.00
14401;DHT22;7285;50.894;5.462;2022-07-17T10:52:57;25.80;1.00
14401;DHT22;7285;50.894;5.462;2022-07-17T10:55:25;26.10;1.00
14401;DHT22;7285;50.894;5.462;2022-07-17T10:57:55;26.30;1.00
14401;DHT22;7285;50.894;5.462;2022-07-17T11:00:24;26.40;1.00
14401;DHT22;7285;50.894;5.462;2022-07-17T11:02:52;26.40;1.00
14401;DHT22;7285;50.894;5.462;2022-07-17T11:05:19;25.80;1.00
14401;DHT22;7285;50.894;5.462;2022-07-17T11:07:55;26.10;1.00
14401;DHT22;7285;50.894;5.462;2022-07-17T11:10:25;26.10;1.00
14401;DHT22;7285;50.894;5.462;2022-07-17T11:12:54;26.60;1.00
14401;DHT22;7285;50.894;5.462;2022-07-17T11:15:22;26.80;1.00
14401;DHT22;7285;50.894;5.462;2022-07-17T11:17:49;26.50;1.00
14401;DHT22;7285;50.894;5.462;2022-07-17T11:20:16;26.80;1.00
14401;DHT22;7285;50.894;5.462;2022-07-17T11:22:44;27.10;1.00
14401;DHT22;7285;50.894;5.462;2022-07-17T11:25:11;27.10;1.00
14401;DHT22;7285;50.894;5.462;2022-07-17T11:27:39;27.60;1.00
14401;DHT22;7285;50.894;5.462;2022-07-17T11:30:12;27.50;1.00
14401;DHT22;7285;50.894;5.462;2022-07-17T11:32:42;27.90;1.00
14401;DHT22;7285;50.894;5.462;2022-07-17T11:35:16;27.80;1.00
14401;DHT22;7285;50.894;5.462;2022-07-17T11:37:44;27.50;1.00
14401;DHT22;7285;50.894;5.462;2022-07-17T11:40:11;27.40;1.00
14401;DHT22;7285;50.894;5.462;2022-07-17T11:42:38;27.50;1.00
14401;DHT22;7285;50.894;5.462;2022-07-17T11:45:08;27.70;1.00
14401;DHT22;7285;50.894;5.462;2022-07-17T11:47:36;27.70;1.00
14401;DHT22;7285;50.894;5.462;2022-07-17T11:50:06;27.50;1.00
14401;DHT22;7285;50.894;5.462;2022-07-17T11:52:40;27.40;1.00
14401;DHT22;7285;50.894;5.462;2022-07-17T11:55:09;27.80;1.00
14401;DHT22;7285;50.894;5.462;2022-07-17T11:57:45;27.90;1.00
14401;DHT22;7285;50.894;5.462;2022-07-17T12:00:16;28.10;1.00
14401;DHT22;7285;50.894;5.462;2022-07-17T12:02:44;28.00;1.00
14401;DHT22;7285;50.894;5.462;2022-07-17T12:05:11;28.20;1.00
14401;DHT22;7285;50.894;5.462;2022-07-17T12:07:41;28.10;1.00
14401;DHT22;7285;50.894;5.462;2022-07-17T12:10:15;28.20;1.00
14401;DHT22;7285;50.894;5.462;2022-07-17T12:12:56;28.10;1.00
14401;DHT22;7285;50.894;5.462;2022-07-17T12:15:37;28.20;1.00
14401;DHT22;7285;50.894;5.462;2022-07-17T12:18:06;28.50;1.00
14401;DHT22;7285;50.894;5.462;2022-07-17T12:20:42;28.30;1.00
14401;DHT22;7285;50.894;5.462;2022-07-17T12:23:34;28.30;1.00
14401;DHT22;7285;50.894;5.462;2022-07-17T12:26:21;28.50;1.00
14401;DHT22;7285;50.894;5.462;2022-07-17T12:29:10;28.40;1.00
14401;DHT22;7285;50.894;5.462;2022-07-17T12:31:39;28.50;1.00
14401;DHT22;7285;50.894;5.462;2022-07-17T12:34:08;28.60;1.00
14401;DHT22;7285;50.894;5.462;2022-07-17T12:36:43;28.90;1.00
14401;DHT22;7285;50.894;5.462;2022-07-17T12:39:39;29.00;1.00
14401;DHT22;7285;50.894;5.462;2022-07-17T12:42:26;28.90;1.00
14401;DHT22;7285;50.894;5.462;2022-07-17T12:44:58;29.20;1.00
14401;DHT22;7285;50.894;5.462;2022-07-17T12:47:31;29.50;1.00
14401;DHT22;7285;50.894;5.462;2022-07-17T12:49:58;29.60;1.00
14401;DHT22;7285;50.894;5.462;2022-07-17T12:52:25;30.00;1.00
14401;DHT22;7285;50.894;5.462;2022-07-17T12:54:52;29.60;1.00
14401;DHT22;7285;50.894;5.462;2022-07-17T12:57:19;29.80;1.00
14401;DHT22;7285;50.894;5.462;2022-07-17T12:59:46;29.80;1.00
14401;DHT22;7285;50.894;5.462;2022-07-17T13:02:13;29.90;1.00
14401;DHT22;7285;50.894;5.462;2022-07-17T13:04:44;30.10;1.00
14401;DHT22;7285;50.894;5.462;2022-07-17T13:07:12;30.50;1.00
14401;DHT22;7285;50.894;5.462;2022-07-17T13:09:39;30.30;1.00
14401;DHT22;7285;50.894;5.462;2022-07-17T13:12:06;30.40;1.00
14401;DHT22;7285;50.894;5.462;2022-07-17T13:14:35;30.60;1.00
14401;DHT22;7285;50.894;5.462;2022-07-17T13:17:02;30.80;1.00
14401;DHT22;7285;50.894;5.462;2022-07-17T13:19:29;30.70;1.00
14401;DHT22;7285;50.894;5.462;2022-07-17T13:21:57;30.90;1.00
14401;DHT22;7285;50.894;5.462;2022-07-17T13:24:25;30.90;1.00
14401;DHT22;7285;50.894;5.462;2022-07-17T13:26:53;30.50;1.00
14401;DHT22;7285;50.894;5.462;2022-07-17T13:29:21;30.50;1.00
14401;DHT22;7285;50.894;5.462;2022-07-17T13:31:51;30.40;1.00
14401;DHT22;7285;50.894;5.462;2022-07-17T13:34:26;30.40;1.00
14401;DHT22;7285;50.894;5.462;2022-07-17T13:36:53;30.60;1.00
14401;DHT22;7285;50.894;5.462;2022-07-17T13:39:21;30.30;1.00
14401;DHT22;7285;50.894;5.462;2022-07-17T13:41:56;30.40;1.00
14401;DHT22;7285;50.894;5.462;2022-07-17T13:44:23;30.70;1.00
14401;DHT22;7285;50.894;5.462;2022-07-17T13:46:50;30.40;1.00
14401;DHT22;7285;50.894;5.462;2022-07-17T13:49:29;30.70;1.00
14401;DHT22;7285;50.894;5.462;2022-07-17T13:52:02;30.90;1.00
14401;DHT22;7285;50.894;5.462;2022-07-17T13:54:30;30.80;1.00
14401;DHT22;7285;50.894;5.462;2022-07-17T13:56:57;30.80;1.00
14401;DHT22;7285;50.894;5.462;2022-07-17T13:59:25;30.90;1.00
14401;DHT22;7285;50.894;5.462;2022-07-17T14:01:52;31.00;1.00
14401;DHT22;7285;50.894;5.462;2022-07-17T14:04:19;30.70;1.00
14401;DHT22;7285;50.894;5.462;2022-07-17T14:06:46;30.70;1.00
14401;DHT22;7285;50.894;5.462;2022-07-17T14:09:13;30.60;1.00
14401;DHT22;7285;50.894;5.462;2022-07-17T14:11:41;30.40;1.00
14401;DHT22;7285;50.894;5.462;2022-07-17T14:14:09;30.60;1.00
14401;DHT22;7285;50.894;5.462;2022-07-17T14:16:36;30.90;1.00
14401;DHT22;7285;50.894;5.462;2022-07-17T14:19:03;30.90;1.00
14401;DHT22;7285;50.894;5.462;2022-07-17T14:21:31;30.70;1.00
14401;DHT22;7285;50.894;5.462;2022-07-17T14:23:59;30.90;1.00
14401;DHT22;7285;50.894;5.462;2022-07-17T14:26:26;31.20;1.00
14401;DHT22;7285;50.894;5.462;2022-07-17T14:28:55;31.10;1.00
14401;DHT22;7285;50.894;5.462;2022-07-17T14:31:22;31.60;1.00
14401;DHT22;7285;50.894;5.462;2022-07-17T14:33:49;31.20;1.00
14401;DHT22;7285;50.894;5.462;2022-07-17T14:36:16;31.00;1.00
14401;DHT22;7285;50.894;5.462;2022-07-17T14:38:43;31.50;1.00
14401;DHT22;7285;50.894;5.462;2022-07-17T14:41:10;31.50;1.00
14401;DHT22;7285;50.894;5.462;2022-07-17T14:43:37;31.20;1.00
14401;DHT22;7285;50.894;5.462;2022-07-17T14:46:16;31.60;1.00
14401;DHT22;7285;50.894;5.462;2022-07-17T14:48:49;31.40;1.00
14401;DHT22;7285;50.894;5.462;2022-07-17T14:51:16;31.30;1.00
14401;DHT22;7285;50.894;5.462;2022-07-17T14:53:48;31.50;1.00
14401;DHT22;7285;50.894;5.462;2022-07-17T14:56:16;31.50;1.00
14401;DHT22;7285;50.894;5.462;2022-07-17T14:58:43;31.80;1.00
14401;DHT22;7285;50.894;5.462;2022-07-17T15:01:10;31.30;1.00
14401;DHT22;7285;50.894;5.462;2022-07-17T15:03:38;31.60;1.00
14401;DHT22;7285;50.894;5.462;2022-07-17T15:06:05;31.40;1.00
14401;DHT22;7285;50.894;5.462;2022-07-17T15:08:32;31.50;1.00
14401;DHT22;7285;50.894;5.462;2022-07-17T15:10:59;31.90;1.00
14401;DHT22;7285;50.894;5.462;2022-07-17T15:13:26;31.60;1.00
14401;DHT22;7285;50.894;5.462;2022-07-17T15:15:54;31.50;1.00
14401;DHT22;7285;50.894;5.462;2022-07-17T15:18:21;31.50;1.00
14401;DHT22;7285;50.894;5.462;2022-07-17T15:20:49;31.30;1.00
14401;DHT22;7285;50.894;5.462;2022-07-17T15:23:16;31.20;1.00
14401;DHT22;7285;50.894;5.462;2022-07-17T15:25:49;31.60;1.00
14401;DHT22;7285;50.894;5.462;2022-07-17T15:28:17;31.60;1.00
14401;DHT22;7285;50.894;5.462;2022-07-17T15:30:44;31.30;1.00
14401;DHT22;7285;50.894;5.462;2022-07-17T15:33:12;31.50;1.00
14401;DHT22;7285;50.894;5.462;2022-07-17T15:35:39;31.50;1.00
14401;DHT22;7285;50.894;5.462;2022-07-17T15:38:08;31.10;1.00
14401;DHT22;7285;50.894;5.462;2022-07-17T15:40:35;31.20;1.00
14401;DHT22;7285;50.894;5.462;2022-07-17T15:43:02;31.60;1.00
14401;DHT22;7285;50.894;5.462;2022-07-17T15:45:33;31.60;1.00
14401;DHT22;7285;50.894;5.462;2022-07-17T15:48:00;31.50;1.00
14401;DHT22;7285;50.894;5.462;2022-07-17T15:50:27;31.50;1.00
14401;DHT22;7285;50.894;5.462;2022-07-17T15:52:54;31.50;1.00
14401;DHT22;7285;50.894;5.462;2022-07-17T15:55:22;31.80;1.00
14401;DHT22;7285;50.894;5.462;2022-07-17T15:57:49;31.40;1.00
14401;DHT22;7285;50.894;5.462;2022-07-17T16:00:17;31.70;1.00
14401;DHT22;7285;50.894;5.462;2022-07-17T16:02:44;31.60;1.00
14401;DHT22;7285;50.894;5.462;2022-07-17T16:05:11;31.40;1.00
14401;DHT22;7285;50.894;5.462;2022-07-17T16:07:38;31.50;1.00
14401;DHT22;7285;50.894;5.462;2022-07-17T16:10:06;31.50;1.00